createdAt,value
2019-01-21T00:02:04.319Z,0.20
2019-01-21T00:04:32.353Z,0.20
2019-01-21T00:07:00.299Z,0.20
2019-01-21T00:09:28.291Z,0.30
2019-01-21T00:11:56.266Z,0.30
2019-01-21T00:14:24.164Z,0.40
2019-01-21T00:16:52.155Z,0.40
2019-01-21T00:19:20.062Z,0.40
2019-01-21T00:21:48.023Z,0.20
2019-01-21T00:24:15.952Z,0.20
2019-01-21T00:26:43.835Z,0.20
2019-01-21T00:29:14.162Z,0.30
2019-01-21T00:31:42.135Z,0.30
2019-01-21T00:34:11.613Z,0.20
2019-01-21T00:36:39.735Z,0.10
2019-01-21T00:39:07.646Z,0.00
2019-01-21T00:41:35.548Z,0.00
2019-01-21T00:44:03.537Z,-0.10
2019-01-21T00:46:31.460Z,-0.30
2019-01-21T00:48:59.404Z,-0.40
2019-01-21T00:51:27.946Z,-0.30
2019-01-21T00:53:56.397Z,-0.40
2019-01-21T00:56:24.648Z,-0.40
2019-01-21T00:58:53.055Z,-0.40
2019-01-21T01:01:21.193Z,-0.40
2019-01-21T01:03:49.627Z,-0.30
2019-01-21T01:06:18.039Z,-0.30
2019-01-21T01:08:49.407Z,-0.40
2019-01-21T01:11:17.388Z,-0.30
2019-01-21T01:13:45.298Z,-0.40
2019-01-21T01:16:13.812Z,-0.40
2019-01-21T01:18:42.351Z,-0.40
2019-01-21T01:21:10.707Z,-0.30
2019-01-21T01:23:39.038Z,-0.30
2019-01-21T01:26:07.322Z,-0.30
2019-01-21T01:28:35.543Z,-0.20
2019-01-21T01:31:03.698Z,-0.30
2019-01-21T01:33:32.022Z,-0.40
2019-01-21T01:36:00.028Z,-0.30
2019-01-21T01:38:27.946Z,-0.30
2019-01-21T01:40:55.943Z,-0.30
2019-01-21T01:43:23.968Z,-0.20
2019-01-21T01:45:51.944Z,-0.20
2019-01-21T01:48:19.928Z,-0.30
2019-01-21T01:50:47.913Z,-0.30
2019-01-21T01:53:19.122Z,-0.40
2019-01-21T01:55:49.909Z,-0.60
2019-01-21T01:58:18.406Z,-0.50
2019-01-21T02:00:46.691Z,-0.60
2019-01-21T02:03:15.069Z,-0.60
2019-01-21T02:05:45.716Z,-0.70
2019-01-21T02:08:14.279Z,-0.70
2019-01-21T02:10:42.494Z,-0.70
2019-01-21T02:13:10.513Z,-0.80
2019-01-21T02:15:38.525Z,-0.80
2019-01-21T02:18:06.485Z,-0.80
2019-01-21T02:20:34.379Z,-0.80
2019-01-21T02:23:05.981Z,-0.90
2019-01-21T02:25:37.126Z,-0.90
2019-01-21T02:28:15.469Z,-0.90
2019-01-21T02:31:17.790Z,-1.00
2019-01-21T02:33:54.858Z,-1.10
2019-01-21T02:36:42.374Z,-1.00
2019-01-21T02:39:21.230Z,-1.00
2019-01-21T02:41:58.576Z,-1.00
2019-01-21T02:44:34.839Z,-1.00
2019-01-21T02:47:22.205Z,-0.90
2019-01-21T02:50:12.427Z,-1.00
2019-01-21T02:53:11.503Z,-1.00
2019-01-21T02:55:55.011Z,-0.80
2019-01-21T02:58:41.507Z,-0.70
2019-01-21T03:01:22.166Z,-0.70
2019-01-21T03:03:53.392Z,-0.70
2019-01-21T03:06:45.039Z,-0.60
2019-01-21T03:09:41.489Z,-0.60
2019-01-21T03:12:28.987Z,-0.60
2019-01-21T03:15:15.186Z,-0.50
2019-01-21T03:18:08.002Z,-0.60
2019-01-21T03:21:05.842Z,-0.80
2019-01-21T03:23:42.304Z,-0.80
2019-01-21T03:26:17.203Z,-0.90
2019-01-21T03:29:07.522Z,-0.80
2019-01-21T03:31:49.423Z,-0.80
2019-01-21T03:34:27.751Z,-0.80
2019-01-21T03:37:17.876Z,-0.80
2019-01-21T03:40:05.270Z,-0.70
2019-01-21T03:42:58.344Z,-0.60
2019-01-21T03:45:29.400Z,-0.60
2019-01-21T03:48:03.451Z,-0.50
2019-01-21T03:50:41.507Z,-0.60
2019-01-21T03:53:37.012Z,-0.50
2019-01-21T03:56:07.880Z,-0.50
2019-01-21T03:58:43.334Z,-0.50
2019-01-21T04:01:25.063Z,-0.50
2019-01-21T04:04:02.747Z,-0.70
2019-01-21T04:06:37.507Z,-0.90
2019-01-21T04:09:33.566Z,-1.00
2019-01-21T04:12:22.864Z,-1.00
2019-01-21T04:15:08.701Z,-1.20
2019-01-21T04:17:44.943Z,-1.30
2019-01-21T04:20:35.202Z,-1.30
2019-01-21T04:23:10.982Z,-1.30
2019-01-21T04:25:43.209Z,-1.50
2019-01-21T04:28:17.719Z,-1.50
2019-01-21T04:31:03.562Z,-1.40
2019-01-21T04:33:44.589Z,-1.50
2019-01-21T04:36:24.370Z,-1.50
2019-01-21T04:39:06.902Z,-1.40
2019-01-21T04:41:48.648Z,-1.40
2019-01-21T04:44:37.844Z,-1.40
2019-01-21T04:47:14.377Z,-1.30
2019-01-21T04:49:47.656Z,-1.30
2019-01-21T04:52:40.404Z,-1.30
2019-01-21T04:55:13.944Z,-1.40
2019-01-21T04:57:56.957Z,-1.40
2019-01-21T05:00:46.666Z,-1.40
2019-01-21T05:03:29.132Z,-1.50
2019-01-21T05:06:19.717Z,-1.50
2019-01-21T05:09:05.600Z,-1.50
2019-01-21T05:11:56.624Z,-1.50
2019-01-21T05:14:46.662Z,-1.40
2019-01-21T05:17:23.512Z,-1.40
2019-01-21T05:20:13.864Z,-1.50
2019-01-21T05:23:01.207Z,-1.50
2019-01-21T05:25:36.909Z,-1.50
2019-01-21T05:28:27.338Z,-1.50
2019-01-21T05:31:13.450Z,-1.50
2019-01-21T05:33:50.110Z,-1.50
2019-01-21T05:36:28.463Z,-1.40
2019-01-21T05:39:05.771Z,-1.40
2019-01-21T05:41:58.853Z,-1.30
2019-01-21T05:44:40.716Z,-1.40
2019-01-21T05:47:46.350Z,-1.40
2019-01-21T05:50:39.836Z,-1.40
2019-01-21T05:53:42.441Z,-1.40
2019-01-21T05:56:38.909Z,-1.40
2019-01-21T05:59:26.101Z,-1.60
2019-01-21T06:02:19.341Z,-1.60
2019-01-21T06:05:01.100Z,-1.60
2019-01-21T06:07:37.483Z,-1.60
2019-01-21T06:10:13.938Z,-1.50
2019-01-21T06:12:54.538Z,-1.50
2019-01-21T06:15:35.412Z,-1.40
2019-01-21T06:18:29.524Z,-1.40
2019-01-21T06:21:22.958Z,-1.30
2019-01-21T06:24:16.363Z,-1.30
2019-01-21T06:27:02.290Z,-1.40
2019-01-21T06:29:52.437Z,-1.30
2019-01-21T06:32:38.254Z,-1.30
2019-01-21T06:35:28.629Z,-1.40
2019-01-21T06:38:21.648Z,-1.50
2019-01-21T06:41:07.472Z,-1.50
2019-01-21T06:43:54.630Z,-1.40
2019-01-21T06:46:51.043Z,-1.40
2019-01-21T06:49:56.216Z,-1.40
2019-01-21T06:52:29.695Z,-1.50
2019-01-21T06:55:31.763Z,-1.40
2019-01-21T06:58:17.518Z,-1.40
2019-01-21T07:01:03.408Z,-1.20
2019-01-21T07:03:53.182Z,-1.20
2019-01-21T07:06:55.403Z,-1.30
2019-01-21T07:09:54.464Z,-1.30
2019-01-21T07:12:44.351Z,-1.40
2019-01-21T07:15:27.599Z,-1.40
2019-01-21T07:18:14.527Z,-1.60
2019-01-21T07:21:01.696Z,-1.70
2019-01-21T07:23:53.084Z,-1.70
2019-01-21T07:26:39.165Z,-1.60
2019-01-21T07:29:26.432Z,-1.60
2019-01-21T07:32:32.357Z,-1.50
2019-01-21T07:35:15.029Z,-1.50
2019-01-21T07:37:46.649Z,-1.50
2019-01-21T07:40:42.458Z,-1.50
2019-01-21T07:43:18.130Z,-1.50
2019-01-21T07:45:51.812Z,-1.40
2019-01-21T07:48:28.988Z,-1.40
2019-01-21T07:51:15.309Z,-1.30
2019-01-21T07:54:01.108Z,-1.40
2019-01-21T07:56:39.782Z,-1.40
2019-01-21T07:59:20.351Z,-1.40
2019-01-21T08:02:10.423Z,-1.30
2019-01-21T08:04:57.721Z,-1.30
2019-01-21T08:07:54.331Z,-1.30
2019-01-21T08:10:30.621Z,-1.30
2019-01-21T08:13:12.239Z,-1.30
2019-01-21T08:15:59.967Z,-1.30
2019-01-21T08:18:41.779Z,-1.40
2019-01-21T08:21:27.944Z,-1.30
2019-01-21T08:24:18.194Z,-1.40
2019-01-21T08:26:57.823Z,-1.40
2019-01-21T08:29:48.027Z,-1.40
2019-01-21T08:32:24.406Z,-1.40
2019-01-21T08:35:06.677Z,-1.30
2019-01-21T08:37:59.382Z,-1.20
2019-01-21T08:40:55.888Z,-1.30
2019-01-21T08:43:28.683Z,-1.30
2019-01-21T08:46:03.194Z,-1.20
2019-01-21T08:48:40.357Z,-1.20
2019-01-21T08:51:33.685Z,-1.30
2019-01-21T08:54:18.372Z,-1.40
2019-01-21T08:57:11.408Z,-1.40
2019-01-21T08:59:50.144Z,-1.30
2019-01-21T09:02:46.362Z,-1.30
2019-01-21T09:05:22.159Z,-1.40
2019-01-21T09:08:07.539Z,-1.50
2019-01-21T09:10:44.143Z,-1.40
2019-01-21T09:13:31.188Z,-1.50
2019-01-21T09:16:09.922Z,-1.60
2019-01-21T09:19:00.497Z,-1.50
2019-01-21T09:21:43.673Z,-1.60
2019-01-21T09:24:39.863Z,-1.50
2019-01-21T09:27:26.241Z,-1.50
2019-01-21T09:30:16.575Z,-1.40
2019-01-21T09:32:59.051Z,-1.30
2019-01-21T09:35:46.323Z,-1.40
2019-01-21T09:38:32.396Z,-1.40
2019-01-21T09:41:10.344Z,-1.30
2019-01-21T09:43:42.018Z,-1.40
2019-01-21T09:46:35.267Z,-1.40
2019-01-21T09:49:02.520Z,-1.40
2019-01-21T09:51:30.563Z,-1.50
2019-01-21T09:53:58.585Z,-1.50
2019-01-21T09:56:30.621Z,-1.50
2019-01-21T09:58:59.546Z,-1.40
2019-01-21T10:01:27.436Z,-1.40
2019-01-21T10:03:55.458Z,-1.30
2019-01-21T10:06:26.347Z,-1.20
2019-01-21T10:09:19.628Z,-1.20
2019-01-21T10:12:22.073Z,-1.10
2019-01-21T10:14:57.620Z,-0.90
2019-01-21T10:17:53.699Z,-0.80
2019-01-21T10:20:43.067Z,-0.70
2019-01-21T10:23:17.340Z,-0.50
2019-01-21T10:26:07.229Z,-0.50
2019-01-21T10:29:03.162Z,-0.50
2019-01-21T10:31:38.981Z,-0.40
2019-01-21T10:34:21.705Z,-0.30
2019-01-21T10:37:02.416Z,-0.40
2019-01-21T10:40:07.973Z,-0.50
2019-01-21T10:43:08.485Z,-0.50
2019-01-21T10:45:58.670Z,-0.60
2019-01-21T10:48:48.886Z,-0.80
2019-01-21T10:51:26.862Z,-0.70
2019-01-21T10:54:12.429Z,-0.50
2019-01-21T10:56:46.120Z,-0.50
2019-01-21T10:59:36.410Z,-0.50
2019-01-21T11:02:22.035Z,-0.50
2019-01-21T11:04:58.633Z,-0.50
2019-01-21T11:07:34.371Z,-0.40
2019-01-21T11:10:08.704Z,-0.20
2019-01-21T11:12:49.319Z,-0.10
2019-01-21T11:15:39.146Z,0.00
2019-01-21T11:18:26.381Z,0.00
2019-01-21T11:21:07.289Z,0.30
2019-01-21T11:23:54.456Z,0.10
2019-01-21T11:26:44.558Z,0.00
2019-01-21T11:29:31.733Z,-0.20
2019-01-21T11:32:17.689Z,0.10
2019-01-21T11:34:58.884Z,0.20
2019-01-21T11:37:46.079Z,0.60
2019-01-21T11:40:26.260Z,0.30
2019-01-21T11:43:12.104Z,0.30
2019-01-21T11:45:59.385Z,0.30
2019-01-21T11:48:52.545Z,0.10
2019-01-21T11:51:36.017Z,0.00
2019-01-21T11:54:08.284Z,0.00
2019-01-21T11:56:54.723Z,-0.20
2019-01-21T11:59:43.111Z,-0.10
2019-01-21T12:02:14.829Z,-0.10
2019-01-21T12:04:49.272Z,-0.20
2019-01-21T12:07:28.274Z,0.00
2019-01-21T12:10:04.445Z,0.20
2019-01-21T12:12:35.395Z,0.50
2019-01-21T12:15:28.640Z,0.80
2019-01-21T12:18:18.450Z,0.90
2019-01-21T12:20:55.701Z,0.80
2019-01-21T12:23:49.128Z,0.90
2019-01-21T12:26:20.842Z,0.60
2019-01-21T12:29:07.968Z,0.40
2019-01-21T12:31:58.241Z,0.30
2019-01-21T12:34:48.168Z,0.10
2019-01-21T12:37:23.076Z,0.30
2019-01-21T12:40:10.203Z,0.40
2019-01-21T12:43:00.264Z,0.60
2019-01-21T12:46:02.551Z,0.50
2019-01-21T12:48:37.740Z,0.50
2019-01-21T12:51:27.483Z,0.20
2019-01-21T12:54:13.131Z,0.10
2019-01-21T12:57:00.383Z,0.10
2019-01-21T12:59:46.091Z,0.10
2019-01-21T13:02:38.195Z,0.10
2019-01-21T13:05:10.110Z,0.00
2019-01-21T13:07:57.284Z,0.10
2019-01-21T13:10:28.749Z,0.10
2019-01-21T13:13:18.409Z,0.20
2019-01-21T13:16:05.580Z,0.20
2019-01-21T13:18:49.115Z,0.20
2019-01-21T13:21:34.912Z,0.30
2019-01-21T13:24:11.305Z,0.30
2019-01-21T13:27:02.523Z,0.10
2019-01-21T13:29:51.671Z,0.10
2019-01-21T13:32:33.144Z,0.00
2019-01-21T13:35:36.219Z,-0.10
2019-01-21T13:38:23.674Z,-0.10
2019-01-21T13:41:13.680Z,-0.10
2019-01-21T13:43:59.695Z,-0.10
2019-01-21T13:46:50.228Z,-0.10
2019-01-21T13:49:21.440Z,0.00
2019-01-21T13:51:57.329Z,0.20
2019-01-21T13:54:50.436Z,0.20
2019-01-21T13:57:40.536Z,0.00
2019-01-21T14:00:26.296Z,0.00
2019-01-21T14:03:08.391Z,0.00
2019-01-21T14:05:58.649Z,0.00
2019-01-21T14:08:30.004Z,-0.10
2019-01-21T14:11:23.243Z,-0.10
2019-01-21T14:13:54.407Z,0.00
2019-01-21T14:16:50.845Z,0.10
2019-01-21T14:19:31.208Z,0.20
2019-01-21T14:22:04.036Z,0.30
2019-01-21T14:24:50.131Z,0.30
2019-01-21T14:27:37.303Z,0.40
2019-01-21T14:30:15.090Z,0.50
2019-01-21T14:32:55.593Z,0.50
2019-01-21T14:35:33.111Z,0.50
2019-01-21T14:38:18.181Z,0.50
2019-01-21T14:40:50.834Z,0.60
2019-01-21T14:43:38.038Z,0.40
2019-01-21T14:46:17.475Z,0.30
2019-01-21T14:49:04.461Z,0.20
2019-01-21T14:51:46.503Z,0.20
2019-01-21T14:54:23.406Z,0.20
2019-01-21T14:56:59.074Z,0.20
2019-01-21T14:59:40.615Z,0.10
2019-01-21T15:02:15.154Z,0.00
2019-01-21T15:05:02.734Z,0.00
2019-01-21T15:07:40.903Z,0.00
2019-01-21T15:10:26.807Z,0.10
2019-01-21T15:13:00.785Z,0.00
2019-01-21T15:15:37.868Z,0.00
2019-01-21T15:18:20.349Z,-0.10
2019-01-21T15:20:57.820Z,-0.30
2019-01-21T15:23:45.531Z,-0.40
2019-01-21T15:26:25.162Z,-0.50
2019-01-21T15:29:18.547Z,-0.50
2019-01-21T15:31:56.187Z,-0.50
2019-01-21T15:34:33.815Z,-0.60
2019-01-21T15:37:27.320Z,-0.60
2019-01-21T15:40:05.048Z,-0.60
2019-01-21T15:42:54.047Z,-0.60
2019-01-21T15:45:32.129Z,-0.60
2019-01-21T15:48:25.488Z,-0.70
2019-01-21T15:51:07.579Z,-0.60
2019-01-21T15:53:54.754Z,-0.70
2019-01-21T15:56:35.600Z,-0.60
2019-01-21T15:59:22.752Z,-0.80
2019-01-21T16:02:12.882Z,-0.70
2019-01-21T16:04:50.770Z,-0.80
2019-01-21T16:07:27.498Z,-0.80
2019-01-21T16:10:13.732Z,-0.80
2019-01-21T16:12:48.157Z,-0.80
2019-01-21T16:15:38.226Z,-0.80
2019-01-21T16:18:13.980Z,-0.80
2019-01-21T16:21:12.682Z,-0.80
2019-01-21T16:23:59.607Z,-0.80
2019-01-21T16:26:42.735Z,-0.90
2019-01-21T16:29:13.638Z,-0.90
2019-01-21T16:32:03.661Z,-0.90
2019-01-21T16:35:06.058Z,-0.80
2019-01-21T16:37:55.522Z,-0.90
2019-01-21T16:40:36.421Z,-1.00
2019-01-21T16:43:04.496Z,-1.10
2019-01-21T16:45:37.653Z,-1.20
2019-01-21T16:48:06.172Z,-1.20
2019-01-21T16:50:34.549Z,-1.30
2019-01-21T16:53:02.735Z,-1.20
2019-01-21T16:55:30.703Z,-1.20
2019-01-21T16:57:59.294Z,-1.10
2019-01-21T17:00:29.879Z,-1.10
2019-01-21T17:02:57.935Z,-1.10
2019-01-21T17:05:25.907Z,-1.20
2019-01-21T17:07:54.056Z,-1.20
2019-01-21T17:10:22.387Z,-1.30
2019-01-21T17:12:52.727Z,-1.20
2019-01-21T17:15:22.596Z,-1.20
2019-01-21T17:17:50.823Z,-1.30
2019-01-21T17:20:20.193Z,-1.20
2019-01-21T17:22:48.196Z,-1.20
2019-01-21T17:25:16.819Z,-1.20
2019-01-21T17:27:45.069Z,-1.30
2019-01-21T17:30:13.813Z,-1.30
2019-01-21T17:32:41.685Z,-1.30
2019-01-21T17:35:12.985Z,-1.30
2019-01-21T17:37:41.281Z,-1.40
2019-01-21T17:40:10.558Z,-1.50
2019-01-21T17:42:38.680Z,-1.50
2019-01-21T17:45:08.825Z,-1.50
2019-01-21T17:47:36.996Z,-1.50
2019-01-21T17:50:05.531Z,-1.60
2019-01-21T17:52:33.456Z,-1.70
2019-01-21T17:55:01.419Z,-1.70
2019-01-21T17:57:29.435Z,-1.70
2019-01-21T17:59:57.411Z,-1.60
2019-01-21T18:02:25.485Z,-1.70
2019-01-21T18:04:53.516Z,-1.80
2019-01-21T18:07:21.571Z,-1.80
2019-01-21T18:09:49.575Z,-1.80
2019-01-21T18:12:17.667Z,-1.70
2019-01-21T18:14:45.591Z,-1.70
2019-01-21T18:17:13.526Z,-1.70
2019-01-21T18:19:41.510Z,-1.70
2019-01-21T18:22:09.660Z,-1.70
2019-01-21T18:24:37.883Z,-1.70
2019-01-21T18:27:06.160Z,-1.70
2019-01-21T18:29:34.119Z,-1.70
2019-01-21T18:32:02.447Z,-1.80
2019-01-21T18:34:30.332Z,-1.90
2019-01-21T18:36:58.354Z,-1.90
2019-01-21T18:39:26.725Z,-1.90
2019-01-21T18:41:54.813Z,-1.90
2019-01-21T18:44:22.711Z,-1.90
2019-01-21T18:46:53.847Z,-1.80
2019-01-21T18:49:22.917Z,-1.80
2019-01-21T18:51:52.056Z,-1.80
2019-01-21T18:54:20.075Z,-1.70
2019-01-21T18:56:48.051Z,-1.60
2019-01-21T18:59:16.174Z,-1.60
2019-01-21T19:01:44.400Z,-1.80
2019-01-21T19:04:12.923Z,-1.80
2019-01-21T19:06:43.256Z,-1.70
2019-01-21T19:09:11.630Z,-1.60
2019-01-21T19:11:39.725Z,-1.70
2019-01-21T19:14:11.203Z,-1.70
2019-01-21T19:16:41.285Z,-1.70
2019-01-21T19:19:09.687Z,-1.70
2019-01-21T19:21:38.041Z,-1.60
2019-01-21T19:24:06.022Z,-1.70
2019-01-21T19:26:33.986Z,-1.80
2019-01-21T19:29:02.168Z,-1.80
2019-01-21T19:31:30.397Z,-1.70
2019-01-21T19:33:58.387Z,-1.60
2019-01-21T19:36:26.718Z,-1.50
2019-01-21T19:38:54.662Z,-1.50
2019-01-21T19:41:22.759Z,-1.60
2019-01-21T19:43:50.735Z,-1.60
2019-01-21T19:46:18.793Z,-1.60
2019-01-21T19:48:48.294Z,-1.50
2019-01-21T19:51:16.386Z,-1.40
2019-01-21T19:53:44.285Z,-1.40
2019-01-21T19:56:12.461Z,-1.30
2019-01-21T19:58:41.720Z,-1.40
2019-01-21T20:01:09.877Z,-1.30
2019-01-21T20:03:37.943Z,-1.40
2019-01-21T20:06:06.166Z,-1.30
2019-01-21T20:08:34.264Z,-1.30
2019-01-21T20:11:02.798Z,-1.40
2019-01-21T20:13:31.556Z,-1.30
2019-01-21T20:15:59.637Z,-1.40
2019-01-21T20:18:27.690Z,-1.30
2019-01-21T20:20:55.815Z,-1.40
2019-01-21T20:23:23.865Z,-1.40
2019-01-21T20:25:51.836Z,-1.30
2019-01-21T20:28:19.877Z,-1.30
2019-01-21T20:30:48.388Z,-1.40
2019-01-21T20:33:16.383Z,-1.40
2019-01-21T20:35:44.435Z,-1.50
2019-01-21T20:38:12.497Z,-1.50
2019-01-21T20:40:40.800Z,-1.50
2019-01-21T20:43:09.221Z,-1.60
2019-01-21T20:45:37.309Z,-1.70
2019-01-21T20:48:05.659Z,-1.70
2019-01-21T20:50:35.205Z,-1.70
2019-01-21T20:53:03.320Z,-1.70
2019-01-21T20:55:31.570Z,-1.70
2019-01-21T20:58:00.072Z,-1.60
2019-01-21T21:00:28.717Z,-1.60
2019-01-21T21:02:57.293Z,-1.70
2019-01-21T21:05:25.703Z,-1.60
2019-01-21T21:07:54.532Z,-1.70
2019-01-21T21:10:22.787Z,-1.70
2019-01-21T21:12:51.337Z,-1.80
2019-01-21T21:15:20.874Z,-1.70
2019-01-21T21:17:49.367Z,-1.70
2019-01-21T21:20:17.754Z,-1.90
2019-01-21T21:22:46.165Z,-1.80
2019-01-21T21:25:15.408Z,-1.80
2019-01-21T21:27:43.845Z,-1.80
2019-01-21T21:30:19.677Z,-1.80
2019-01-21T21:32:48.590Z,-1.90
2019-01-21T21:35:16.994Z,-1.90
2019-01-21T21:37:45.554Z,-1.80
2019-01-21T21:40:14.957Z,-1.80
2019-01-21T21:42:43.341Z,-1.80
2019-01-21T21:45:12.430Z,-1.80
2019-01-21T21:47:40.918Z,-1.80
2019-01-21T21:50:11.378Z,-1.90
2019-01-21T21:52:39.723Z,-1.90
2019-01-21T21:55:08.766Z,-2.00
2019-01-21T21:57:37.133Z,-2.00
2019-01-21T22:00:07.224Z,-2.10
2019-01-21T22:02:36.083Z,-2.10
2019-01-21T22:05:04.877Z,-2.20
2019-01-21T22:07:33.285Z,-2.20
2019-01-21T22:10:01.899Z,-2.10
2019-01-21T22:12:30.383Z,-2.10
2019-01-21T22:14:58.870Z,-2.10
2019-01-21T22:17:29.037Z,-2.00
2019-01-21T22:19:59.455Z,-2.00
2019-01-21T22:22:34.766Z,-2.00
2019-01-21T22:25:01.322Z,-2.10
2019-01-21T22:27:30.914Z,-2.10
2019-01-21T22:30:00.596Z,-2.10
2019-01-21T22:32:29.006Z,-2.10
2019-01-21T22:34:57.057Z,-2.10
2019-01-21T22:37:25.090Z,-2.20
2019-01-21T22:39:53.315Z,-2.20
2019-01-21T22:42:21.438Z,-2.30
2019-01-21T22:44:49.640Z,-2.20
2019-01-21T22:47:17.699Z,-2.30
2019-01-21T22:49:45.657Z,-2.30
2019-01-21T22:52:13.848Z,-2.30
2019-01-21T22:54:42.198Z,-2.30
2019-01-21T22:57:10.347Z,-2.30
2019-01-21T22:59:38.363Z,-2.30
2019-01-21T23:02:06.408Z,-2.30
2019-01-21T23:04:34.550Z,-2.30
2019-01-21T23:07:02.508Z,-2.30
2019-01-21T23:09:30.789Z,-2.30
2019-01-21T23:11:58.860Z,-2.30
2019-01-21T23:14:26.874Z,-2.30
2019-01-21T23:16:54.986Z,-2.40
2019-01-21T23:19:23.167Z,-2.30
2019-01-21T23:21:51.182Z,-2.30
2019-01-21T23:24:19.220Z,-2.40
2019-01-21T23:26:49.444Z,-2.40
2019-01-21T23:29:17.433Z,-2.40
2019-01-21T23:31:45.361Z,-2.40
2019-01-21T23:34:13.484Z,-2.40
2019-01-21T23:36:41.874Z,-2.40
2019-01-21T23:39:09.848Z,-2.30
2019-01-21T23:41:37.941Z,-2.40
2019-01-21T23:44:05.981Z,-2.50
2019-01-21T23:46:33.968Z,-2.40
2019-01-21T23:49:02.007Z,-2.50
2019-01-21T23:51:30.554Z,-2.60
2019-01-21T23:53:58.662Z,-2.60
2019-01-21T23:56:26.734Z,-2.70
2019-01-21T23:58:54.958Z,-2.60
